Terminal Aerodrome Forecast
Issued by NWS

Home | Current Version | Previous Version | Text Only | Print | Product List | Glossary On
Versions: 1 2 3 4 5 6 7 8 9 10 11 12 13 14 15
000
FTUS45 KSLC 060906 AAA
TAFENV
TAF AMD
KENV 060906Z 0609/0706 35010G16KT P6SM BKN130
     FM061100 01008KT P6SM BKN130
     FM061600 10008KT P6SM BKN150
      AMD LTD TO CLD VIS AND WIND=

USA.gov is the U.S. government's official web portal to all federal, state and local government web resources and services.